Time;durP1;ratioP1;P1;durP2;ratioP2;P2;SDS_P1;SDS_P2;PMS_P1;PMS_P2;Temp;Humidity;BMP_temperature;BMP_pressure;BME280_temperature;BME280_humidity;BME280_pressure;Samples;Min_cycle;Max_cycle;Signal;HPM_P1;HPM_P2
2021/12/30 00:01:17;;;;;;;30.10;13.65;;;;;;;;;;5043920;28;20009;-73
2021/12/30 00:03:44;;;;;;;28.42;13.18;;;;;;;;;;5061287;28;20013;-72
2021/12/30 00:06:10;;;;;;;25.20;13.25;;;;;;;;;;5061112;28;20047;-73
2021/12/30 00:08:36;;;;;;;24.27;13.25;;;;;;;;;;5044184;28;20032;-73
2021/12/30 00:11:03;;;;;;;24.73;12.68;;;;;;;;;;5044285;28;20092;-73
2021/12/30 00:13:29;;;;;;;25.02;12.85;;;;;;;;;;5061237;28;20018;-72
2021/12/30 00:15:55;;;;;;;23.95;11.60;;;;;;;;;;5043922;28;20063;-73
2021/12/30 00:18:20;;;;;;;22.30;12.27;;;;;;;;;;5061064;28;20047;-73
2021/12/30 00:20:47;;;;;;;23.98;12.25;;;;;;;;;;5061124;28;20013;-73
2021/12/30 00:23:12;;;;;;;22.23;12.25;;;;;;;;;;5044020;28;20029;-73
2021/12/30 00:25:40;;;;;;;22.42;11.40;;;;;;;;;;5044142;28;20085;-73
2021/12/30 00:28:08;;;;;;;23.38;11.85;;;;;;;;;;5061287;28;20009;-72
2021/12/30 00:30:34;;;;;;;26.25;12.88;;;;;;;;;;5061232;28;20024;-72
2021/12/30 00:33:00;;;;;;;24.85;12.88;;;;;;;;;;5043638;28;20085;-74
2021/12/30 00:35:25;;;;;;;23.83;11.98;;;;;;;;;;5044111;28;20040;-73
2021/12/30 00:37:51;;;;;;;25.23;12.60;;;;;;;;;;5061078;28;20021;-73
2021/12/30 00:40:16;;;;;;;23.70;12.48;;;;;;;;;;5060851;28;20014;-73
2021/12/30 00:42:42;;;;;;;24.58;12.80;;;;;;;;;;5060768;28;20029;-73
2021/12/30 00:45:07;;;;;;;24.05;12.88;;;;;;;;;;5060573;28;20021;-73
2021/12/30 00:47:33;;;;;;;23.85;12.35;;;;;;;;;;5043528;28;20029;-73
2021/12/30 00:49:58;;;;;;;26.63;13.73;;;;;;;;;;5060555;28;20009;-73
2021/12/30 00:52:25;;;;;;;24.88;12.93;;;;;;;;;;5060421;28;20045;-74
2021/12/30 00:54:50;;;;;;;27.40;12.85;;;;;;;;;;5060626;28;20043;-73
2021/12/30 00:57:16;;;;;;;29.33;14.20;;;;;;;;;;5060178;28;20009;-72
2021/12/30 00:59:41;;;;;;;29.05;13.38;;;;;;;;;;5060699;28;20018;-73
2021/12/30 01:02:07;;;;;;;26.58;13.15;;;;;;;;;;5043434;28;20048;-74
2021/12/30 01:04:32;;;;;;;32.72;14.57;;;;;;;;;;5059629;28;20182;-73
2021/12/30 01:06:57;;;;;;;28.48;14.50;;;;;;;;;;5042839;28;20037;-73
2021/12/30 01:09:23;;;;;;;29.67;14.68;;;;;;;;;;5043138;28;20081;-73
2021/12/30 01:11:48;;;;;;;33.10;15.43;;;;;;;;;;5060464;28;20028;-74
2021/12/30 01:14:21;;;;;;;34.22;15.43;;;;;;;;;;5043041;28;20068;-73
2021/12/30 01:16:51;;;;;;;33.13;15.48;;;;;;;;;;5059795;28;20016;-72
2021/12/30 01:22:01;;;;;;;33.72;15.13;;;;;;;;;;5059692;28;20029;-72
2021/12/30 01:24:26;;;;;;;30.27;15.82;;;;;;;;;;5059651;28;20080;-72
2021/12/30 01:26:52;;;;;;;39.03;16.92;;;;;;;;;;5059819;28;20013;-72
2021/12/30 01:29:17;;;;;;;41.33;16.75;;;;;;;;;;5059967;28;20024;-73
2021/12/30 01:31:43;;;;;;;35.22;15.77;;;;;;;;;;5059915;28;20021;-73
2021/12/30 01:34:08;;;;;;;39.75;16.92;;;;;;;;;;5042606;28;20045;-72
2021/12/30 01:36:33;;;;;;;37.40;16.98;;;;;;;;;;5059528;28;20014;-73
2021/12/30 01:38:59;;;;;;;35.95;17.10;;;;;;;;;;5059388;28;20024;-73
2021/12/30 01:41:24;;;;;;;39.45;16.95;;;;;;;;;;5059780;28;20005;-73
2021/12/30 01:43:51;;;;;;;34.58;16.77;;;;;;;;;;5042256;28;20060;-72
2021/12/30 01:46:17;;;;;;;34.05;14.90;;;;;;;;;;5059588;28;20149;-72
2021/12/30 01:48:43;;;;;;;41.85;16.30;;;;;;;;;;5042605;28;20033;-73
2021/12/30 01:51:09;;;;;;;35.38;16.05;;;;;;;;;;5059606;28;20043;-73
2021/12/30 01:53:35;;;;;;;33.63;15.35;;;;;;;;;;5059400;28;20067;-73
2021/12/30 01:56:02;;;;;;;39.78;15.13;;;;;;;;;;5041854;28;20036;-72
2021/12/30 01:58:28;;;;;;;35.45;15.25;;;;;;;;;;5059249;28;20100;-73
2021/12/30 02:00:54;;;;;;;36.63;15.80;;;;;;;;;;5059173;28;20021;-73
2021/12/30 02:03:21;;;;;;;37.28;15.35;;;;;;;;;;5058825;28;20041;-72
2021/12/30 02:05:47;;;;;;;34.15;15.40;;;;;;;;;;5041684;28;20025;-71
2021/12/30 02:08:16;;;;;;;37.15;15.93;;;;;;;;;;5059498;28;20013;-72
2021/12/30 02:10:44;;;;;;;36.97;15.40;;;;;;;;;;5059343;28;20043;-73
2021/12/30 02:13:10;;;;;;;37.25;15.23;;;;;;;;;;5059009;28;20017;-72
2021/12/30 02:15:36;;;;;;;37.45;15.25;;;;;;;;;;5058248;28;20014;-73
2021/12/30 02:18:03;;;;;;;37.60;16.95;;;;;;;;;;5059226;28;20025;-73
2021/12/30 02:20:43;;;;;;;31.52;15.73;;;;;;;;;;5041477;28;20067;-73
2021/12/30 02:23:08;;;;;;;36.70;15.38;;;;;;;;;;5058858;28;20063;-73
2021/12/30 02:25:34;;;;;;;32.58;14.80;;;;;;;;;;5058667;28;20021;-72
2021/12/30 02:28:00;;;;;;;38.42;15.65;;;;;;;;;;5058742;28;20069;-73
2021/12/30 02:30:25;;;;;;;30.15;15.25;;;;;;;;;;5058669;28;20017;-73
2021/12/30 02:32:50;;;;;;;29.63;15.00;;;;;;;;;;5058426;28;20040;-73
2021/12/30 02:35:16;;;;;;;33.20;15.73;;;;;;;;;;5058717;28;20024;-73
2021/12/30 02:38:04;;;;;;;29.80;15.05;;;;;;;;;;5157258;27;20388;-73
2021/12/30 02:40:37;;;;;;;34.03;15.65;;;;;;;;;;5147176;27;20080;-72
2021/12/30 02:43:10;;;;;;;30.48;15.02;;;;;;;;;;5127759;28;20008;-72
2021/12/30 02:45:36;;;;;;;30.90;15.32;;;;;;;;;;5173634;27;20266;-72
2021/12/30 02:48:01;;;;;;;34.40;15.98;;;;;;;;;;5136310;28;20020;-72
2021/12/30 02:50:27;;;;;;;31.95;17.08;;;;;;;;;;5135607;28;20008;-72
2021/12/30 02:52:52;;;;;;;35.50;16.00;;;;;;;;;;5136790;28;20035;-72
2021/12/30 02:55:18;;;;;;;34.20;16.95;;;;;;;;;;5140138;28;19999;-73
2021/12/30 02:57:43;;;;;;;31.88;16.63;;;;;;;;;;5144143;28;20061;-73
2021/12/30 03:00:10;;;;;;;32.33;16.15;;;;;;;;;;5135449;28;20012;-73
2021/12/30 03:02:38;;;;;;;32.97;16.15;;;;;;;;;;5161677;27;20009;-73
2021/12/30 03:05:07;;;;;;;32.20;15.93;;;;;;;;;;5123492;28;20026;-73
2021/12/30 03:07:33;;;;;;;34.00;16.55;;;;;;;;;;5153322;27;20007;-73
2021/12/30 03:09:58;;;;;;;32.95;15.70;;;;;;;;;;5147328;28;20049;-73
2021/12/30 03:12:24;;;;;;;29.75;15.80;;;;;;;;;;5146234;28;20019;-72
2021/12/30 03:14:49;;;;;;;29.55;15.57;;;;;;;;;;5141397;28;20026;-73
2021/12/30 03:17:15;;;;;;;33.30;16.38;;;;;;;;;;5150620;28;20026;-73
2021/12/30 03:19:40;;;;;;;31.88;15.43;;;;;;;;;;5144992;28;20038;-73
2021/12/30 03:22:06;;;;;;;34.90;16.60;;;;;;;;;;5135461;28;20079;-73
2021/12/30 03:24:32;;;;;;;31.95;16.63;;;;;;;;;;5135642;28;20067;-72
2021/12/30 03:26:57;;;;;;;31.92;15.25;;;;;;;;;;5148792;28;20015;-73
2021/12/30 03:29:22;;;;;;;30.85;16.48;;;;;;;;;;5139579;28;20043;-73
2021/12/30 03:31:48;;;;;;;31.48;15.63;;;;;;;;;;5137232;28;20051;-73
2021/12/30 03:34:13;;;;;;;30.63;16.38;;;;;;;;;;5135076;28;20062;-73
2021/12/30 03:36:39;;;;;;;34.08;16.45;;;;;;;;;;5134483;28;20035;-74
2021/12/30 03:39:05;;;;;;;30.95;15.55;;;;;;;;;;5135008;28;20023;-72
2021/12/30 03:41:32;;;;;;;33.92;15.93;;;;;;;;;;5136116;28;20027;-73
2021/12/30 03:44:00;;;;;;;33.70;17.15;;;;;;;;;;5134392;28;20034;-72
2021/12/30 03:46:26;;;;;;;34.83;16.55;;;;;;;;;;5150417;27;20008;-73
2021/12/30 03:48:52;;;;;;;33.30;15.68;;;;;;;;;;5113843;28;20164;-72
2021/12/30 03:51:24;;;;;;;32.92;16.63;;;;;;;;;;5105914;28;20009;-73
2021/12/30 03:53:54;;;;;;;34.17;16.80;;;;;;;;;;5117090;28;20025;-72
2021/12/30 03:56:23;;;;;;;32.85;16.35;;;;;;;;;;5120074;28;20024;-73
2021/12/30 03:58:49;;;;;;;32.20;15.65;;;;;;;;;;5121038;28;20059;-73
2021/12/30 04:01:18;;;;;;;35.45;16.23;;;;;;;;;;5131468;28;20008;-73
2021/12/30 04:03:44;;;;;;;32.63;15.93;;;;;;;;;;5120495;28;20028;-72
2021/12/30 04:06:10;;;;;;;30.38;14.90;;;;;;;;;;5128657;28;20052;-73
2021/12/30 04:08:36;;;;;;;29.50;14.90;;;;;;;;;;5120504;28;20016;-73
2021/12/30 04:11:02;;;;;;;30.50;15.15;;;;;;;;;;5120848;28;20036;-73
2021/12/30 04:13:28;;;;;;;32.25;15.85;;;;;;;;;;5120690;28;20012;-73
2021/12/30 04:15:54;;;;;;;29.70;16.35;;;;;;;;;;5120398;28;20080;-73
2021/12/30 04:18:19;;;;;;;32.35;15.45;;;;;;;;;;5120559;28;20019;-73
2021/12/30 04:20:46;;;;;;;32.05;15.77;;;;;;;;;;5137888;28;20037;-73
2021/12/30 04:23:12;;;;;;;33.42;15.95;;;;;;;;;;5130533;28;20016;-72
2021/12/30 04:25:38;;;;;;;33.97;15.38;;;;;;;;;;5140363;28;20016;-73
2021/12/30 04:28:03;;;;;;;34.45;15.73;;;;;;;;;;5129674;28;20290;-73
2021/12/30 04:30:29;;;;;;;30.80;15.77;;;;;;;;;;5122510;28;20036;-73
2021/12/30 04:32:55;;;;;;;33.75;16.05;;;;;;;;;;5127897;28;20008;-73
2021/12/30 04:35:20;;;;;;;32.22;15.77;;;;;;;;;;5134750;28;20024;-73
2021/12/30 04:37:46;;;;;;;31.50;15.98;;;;;;;;;;5132650;28;20100;-72
2021/12/30 04:40:12;;;;;;;32.90;15.75;;;;;;;;;;5119740;28;20012;-73
2021/12/30 04:42:38;;;;;;;34.25;16.08;;;;;;;;;;5136261;28;20030;-73
2021/12/30 04:45:05;;;;;;;34.47;17.02;;;;;;;;;;5130155;28;20011;-73
2021/12/30 04:47:31;;;;;;;31.33;15.68;;;;;;;;;;5140796;28;20059;-73
2021/12/30 04:49:57;;;;;;;32.38;16.70;;;;;;;;;;5140204;28;20019;-73
2021/12/30 04:52:23;;;;;;;35.47;15.38;;;;;;;;;;5137181;28;20054;-71
2021/12/30 04:54:49;;;;;;;32.70;16.23;;;;;;;;;;5118830;28;20020;-73
2021/12/30 04:57:15;;;;;;;34.63;15.30;;;;;;;;;;5116005;28;20027;-72
2021/12/30 04:59:41;;;;;;;32.67;16.70;;;;;;;;;;5105663;28;20054;-73
2021/12/30 05:02:06;;;;;;;34.90;15.32;;;;;;;;;;5119775;28;20008;-72
2021/12/30 05:04:31;;;;;;;33.80;15.05;;;;;;;;;;5120142;28;20015;-72
2021/12/30 05:06:57;;;;;;;31.48;15.32;;;;;;;;;;5124448;28;20032;-72
2021/12/30 05:09:22;;;;;;;29.55;15.75;;;;;;;;;;5119897;28;20052;-73
2021/12/30 05:11:48;;;;;;;31.52;15.35;;;;;;;;;;5119296;28;20016;-73
2021/12/30 05:14:13;;;;;;;29.40;15.00;;;;;;;;;;5119174;28;20027;-73
2021/12/30 05:16:39;;;;;;;28.08;14.75;;;;;;;;;;5118233;28;20019;-73
2021/12/30 05:19:05;;;;;;;32.70;15.13;;;;;;;;;;5119251;28;20012;-73
2021/12/30 05:21:31;;;;;;;30.10;15.50;;;;;;;;;;5118332;28;20031;-73
2021/12/30 05:23:57;;;;;;;32.45;14.82;;;;;;;;;;5119167;28;20012;-73
2021/12/30 05:26:28;;;;;;;27.15;13.77;;;;;;;;;;5119639;28;20025;-73
2021/12/30 05:28:58;;;;;;;28.83;15.05;;;;;;;;;;5119517;28;20012;-72
2021/12/30 05:31:23;;;;;;;30.40;15.40;;;;;;;;;;5119171;28;20034;-72
2021/12/30 05:33:49;;;;;;;30.80;14.73;;;;;;;;;;5118749;28;20044;-72
2021/12/30 05:36:15;;;;;;;27.20;14.65;;;;;;;;;;5126516;28;20058;-73
2021/12/30 05:38:40;;;;;;;28.02;14.70;;;;;;;;;;5136408;28;20031;-72
2021/12/30 05:41:05;;;;;;;30.08;14.75;;;;;;;;;;5122542;28;20008;-73
2021/12/30 05:43:31;;;;;;;29.83;14.18;;;;;;;;;;5120522;28;20026;-73
2021/12/30 05:45:56;;;;;;;28.27;14.65;;;;;;;;;;5119101;28;20031;-73
2021/12/30 05:48:22;;;;;;;28.52;13.60;;;;;;;;;;5118822;28;20086;-73
2021/12/30 05:50:47;;;;;;;29.67;14.05;;;;;;;;;;5118902;28;20016;-73
2021/12/30 05:53:13;;;;;;;27.75;14.73;;;;;;;;;;5121365;28;20019;-73
2021/12/30 05:55:38;;;;;;;28.30;15.25;;;;;;;;;;5123220;28;20021;-73
2021/12/30 05:58:04;;;;;;;27.23;14.25;;;;;;;;;;5139020;28;20015;-73
2021/12/30 06:00:31;;;;;;;25.77;14.10;;;;;;;;;;5133417;28;20072;-73
2021/12/30 06:02:57;;;;;;;26.98;13.52;;;;;;;;;;5127768;28;20067;-72
2021/12/30 06:05:23;;;;;;;29.10;14.95;;;;;;;;;;5138743;28;20014;-73
2021/12/30 06:07:49;;;;;;;31.40;16.13;;;;;;;;;;5119339;28;20036;-73
2021/12/30 06:10:14;;;;;;;27.52;13.80;;;;;;;;;;5118942;28;20008;-72
2021/12/30 06:12:42;;;;;;;31.85;15.63;;;;;;;;;;5118245;28;20027;-72
2021/12/30 06:15:09;;;;;;;29.75;15.80;;;;;;;;;;5122595;28;20080;-72
2021/12/30 06:17:35;;;;;;;30.55;15.55;;;;;;;;;;5114110;28;20026;-73
2021/12/30 06:20:00;;;;;;;33.15;16.00;;;;;;;;;;5109368;28;20080;-73
2021/12/30 06:22:26;;;;;;;29.40;15.48;;;;;;;;;;5126817;28;20012;-72
2021/12/30 06:24:51;;;;;;;36.03;16.40;;;;;;;;;;5131566;28;20008;-72
2021/12/30 06:27:16;;;;;;;33.53;17.75;;;;;;;;;;5119386;28;20030;-72
2021/12/30 06:29:42;;;;;;;38.13;16.80;;;;;;;;;;5128403;28;20016;-72
2021/12/30 06:32:07;;;;;;;28.45;15.50;;;;;;;;;;5122981;28;20008;-72
2021/12/30 06:34:34;;;;;;;35.00;17.60;;;;;;;;;;5126393;28;20016;-73
2021/12/30 06:36:59;;;;;;;37.13;17.48;;;;;;;;;;5117110;28;20032;-72
2021/12/30 06:39:24;;;;;;;33.95;15.90;;;;;;;;;;5108495;28;20019;-73
2021/12/30 06:41:50;;;;;;;35.85;16.05;;;;;;;;;;5117325;28;20020;-73
2021/12/30 06:44:15;;;;;;;34.08;15.48;;;;;;;;;;5117941;28;20020;-73
2021/12/30 06:46:51;;;;;;;32.63;16.23;;;;;;;;;;5106428;28;20091;-74
2021/12/30 06:49:17;;;;;;;30.25;15.23;;;;;;;;;;5104516;28;20008;-73
2021/12/30 06:51:42;;;;;;;31.73;15.82;;;;;;;;;;5128004;28;20035;-72
2021/12/30 06:54:08;;;;;;;31.25;16.60;;;;;;;;;;5114261;28;20041;-72
2021/12/30 06:56:36;;;;;;;32.30;16.55;;;;;;;;;;5136497;28;20046;-73
2021/12/30 06:59:03;;;;;;;28.50;16.25;;;;;;;;;;5129807;28;20026;-73
2021/12/30 07:01:29;;;;;;;32.28;15.73;;;;;;;;;;5133423;28;20019;-72
2021/12/30 07:03:55;;;;;;;32.25;15.68;;;;;;;;;;5125926;28;20007;-72
2021/12/30 07:06:20;;;;;;;30.52;15.48;;;;;;;;;;5121459;28;20043;-72
2021/12/30 07:08:46;;;;;;;31.63;15.35;;;;;;;;;;5112504;28;20043;-73
2021/12/30 07:11:11;;;;;;;33.45;15.57;;;;;;;;;;5104628;28;20104;-72
2021/12/30 07:13:37;;;;;;;29.45;14.90;;;;;;;;;;5122596;28;20019;-72
2021/12/30 07:16:03;;;;;;;30.60;15.02;;;;;;;;;;5101541;28;20047;-74
2021/12/30 07:18:28;;;;;;;34.22;16.05;;;;;;;;;;5098880;28;20012;-74
2021/12/30 07:20:53;;;;;;;32.92;16.65;;;;;;;;;;5102983;28;20026;-73
2021/12/30 07:23:19;;;;;;;34.08;16.80;;;;;;;;;;5119864;28;20083;-73
2021/12/30 07:25:44;;;;;;;36.92;16.90;;;;;;;;;;5114258;28;20008;-74
2021/12/30 07:28:10;;;;;;;34.35;16.50;;;;;;;;;;5137799;28;20034;-73
2021/12/30 07:30:35;;;;;;;34.20;16.27;;;;;;;;;;5120429;28;20251;-73
2021/12/30 07:33:05;;;;;;;35.80;18.13;;;;;;;;;;5121895;28;20032;-73
2021/12/30 07:35:31;;;;;;;41.10;18.08;;;;;;;;;;5121832;28;20023;-73
2021/12/30 07:37:57;;;;;;;37.95;17.58;;;;;;;;;;5121549;28;20044;-73
2021/12/30 07:40:22;;;;;;;40.67;18.60;;;;;;;;;;5108891;28;20084;-72
2021/12/30 07:42:48;;;;;;;38.92;18.40;;;;;;;;;;5107315;28;20016;-73
2021/12/30 07:45:13;;;;;;;40.65;18.35;;;;;;;;;;5118837;28;20004;-72
2021/12/30 07:47:40;;;;;;;39.85;18.17;;;;;;;;;;5121064;28;20012;-73
2021/12/30 07:50:06;;;;;;;48.75;20.45;;;;;;;;;;5116305;28;20040;-73
2021/12/30 07:52:32;;;;;;;41.90;18.58;;;;;;;;;;5126346;28;20004;-72
2021/12/30 07:54:57;;;;;;;42.85;21.48;;;;;;;;;;5117655;28;20046;-73
2021/12/30 07:57:23;;;;;;;43.63;19.70;;;;;;;;;;5120602;28;20213;-73
2021/12/30 07:59:49;;;;;;;44.70;20.05;;;;;;;;;;5115821;28;20040;-73
2021/12/30 08:02:15;;;;;;;45.25;19.98;;;;;;;;;;5110766;28;20036;-72
2021/12/30 08:04:40;;;;;;;50.25;21.25;;;;;;;;;;5122720;28;20374;-72
2021/12/30 08:07:06;;;;;;;38.33;17.33;;;;;;;;;;5124141;28;20020;-72
2021/12/30 08:09:31;;;;;;;45.38;18.65;;;;;;;;;;5101854;28;20013;-72
2021/12/30 08:11:59;;;;;;;44.17;19.63;;;;;;;;;;5116436;28;20007;-72
2021/12/30 08:14:25;;;;;;;40.13;17.77;;;;;;;;;;5120892;28;20015;-72
2021/12/30 08:16:50;;;;;;;40.25;18.63;;;;;;;;;;5118273;28;20024;-72
2021/12/30 08:19:15;;;;;;;39.60;17.50;;;;;;;;;;5120818;28;20019;-73
2021/12/30 08:21:42;;;;;;;42.13;18.50;;;;;;;;;;5121034;28;20012;-72
2021/12/30 08:24:11;;;;;;;39.17;18.92;;;;;;;;;;5112067;28;20027;-72
2021/12/30 08:26:37;;;;;;;40.97;17.55;;;;;;;;;;5123605;28;20038;-74
2021/12/30 08:29:04;;;;;;;38.05;17.05;;;;;;;;;;5121044;28;20008;-73
2021/12/30 08:31:29;;;;;;;36.60;16.50;;;;;;;;;;5120728;28;20019;-73
2021/12/30 08:33:55;;;;;;;29.88;14.00;;;;;;;;;;5119750;28;20016;-73
2021/12/30 08:36:20;;;;;;;37.25;16.80;;;;;;;;;;5100162;28;20048;-73
2021/12/30 08:38:45;;;;;;;43.15;18.25;;;;;;;;;;5100530;28;20013;-73
2021/12/30 08:41:11;;;;;;;42.47;17.33;;;;;;;;;;5108235;28;20016;-73
2021/12/30 08:43:36;;;;;;;41.95;16.98;;;;;;;;;;5120022;28;20059;-73
2021/12/30 08:46:02;;;;;;;37.20;16.85;;;;;;;;;;5116954;28;20020;-73
2021/12/30 08:48:27;;;;;;;41.35;17.23;;;;;;;;;;5135479;28;20034;-73
2021/12/30 08:50:53;;;;;;;43.58;18.75;;;;;;;;;;5141016;28;20023;-73
2021/12/30 08:53:18;;;;;;;39.08;17.20;;;;;;;;;;5141220;28;20047;-73
2021/12/30 08:55:44;;;;;;;40.28;16.95;;;;;;;;;;5140644;28;20012;-73
2021/12/30 08:58:09;;;;;;;37.00;16.27;;;;;;;;;;5140070;28;20030;-73
2021/12/30 09:00:38;;;;;;;32.72;15.23;;;;;;;;;;5125220;28;20023;-73
2021/12/30 09:03:05;;;;;;;34.40;13.60;;;;;;;;;;5118115;28;20016;-72
2021/12/30 09:05:32;;;;;;;35.65;16.02;;;;;;;;;;5104617;28;20012;-73
2021/12/30 09:07:58;;;;;;;35.58;15.98;;;;;;;;;;5100163;28;20020;-74
2021/12/30 09:10:24;;;;;;;32.50;14.45;;;;;;;;;;5103252;28;20079;-73
2021/12/30 09:12:51;;;;;;;34.60;15.70;;;;;;;;;;5116457;28;20024;-72
2021/12/30 09:15:18;;;;;;;32.72;15.13;;;;;;;;;;5099740;28;20013;-73
2021/12/30 09:17:45;;;;;;;35.10;15.27;;;;;;;;;;5099482;28;20012;-73
2021/12/30 09:20:12;;;;;;;31.90;14.73;;;;;;;;;;5110227;28;20035;-73
2021/12/30 09:22:38;;;;;;;36.28;16.50;;;;;;;;;;5115683;28;20020;-73
2021/12/30 09:25:07;;;;;;;35.40;15.70;;;;;;;;;;5119901;28;20008;-73
2021/12/30 09:27:33;;;;;;;37.55;16.15;;;;;;;;;;5110208;28;20015;-73
2021/12/30 09:29:59;;;;;;;37.63;16.67;;;;;;;;;;5103639;28;20004;-73
2021/12/30 09:32:25;;;;;;;36.50;17.23;;;;;;;;;;5100096;28;20017;-73
2021/12/30 09:34:51;;;;;;;39.58;17.45;;;;;;;;;;5110555;28;20086;-73
2021/12/30 09:37:16;;;;;;;38.97;16.15;;;;;;;;;;5118800;28;20114;-74
2021/12/30 09:39:42;;;;;;;42.78;19.15;;;;;;;;;;5118040;28;20023;-73
2021/12/30 09:42:08;;;;;;;37.72;15.50;;;;;;;;;;5110513;28;20034;-73
2021/12/30 09:44:33;;;;;;;38.45;18.23;;;;;;;;;;5118820;28;20012;-73
2021/12/30 09:46:59;;;;;;;47.55;21.08;;;;;;;;;;5113977;28;20017;-73
2021/12/30 09:49:24;;;;;;;52.83;21.33;;;;;;;;;;5118005;28;20012;-73
2021/12/30 09:51:51;;;;;;;40.63;19.02;;;;;;;;;;5118909;28;20016;-74
2021/12/30 09:54:17;;;;;;;53.40;22.27;;;;;;;;;;5119404;28;20076;-74
2021/12/30 09:56:43;;;;;;;54.17;22.73;;;;;;;;;;5119281;28;20016;-74
2021/12/30 09:59:10;;;;;;;44.60;18.30;;;;;;;;;;5114265;28;20076;-73
2021/12/30 10:01:38;;;;;;;52.10;20.77;;;;;;;;;;5099087;28;20013;-73
2021/12/30 10:04:05;;;;;;;68.85;24.10;;;;;;;;;;5101734;28;20049;-73
2021/12/30 10:06:34;;;;;;;57.83;21.83;;;;;;;;;;5109155;28;20026;-73
2021/12/30 10:09:10;;;;;;;70.38;24.52;;;;;;;;;;5119230;28;20067;-74
2021/12/30 10:11:50;;;;;;;75.30;25.70;;;;;;;;;;5118553;28;20008;-73
2021/12/30 10:14:32;;;;;;;75.82;25.60;;;;;;;;;;5119126;28;20031;-73
2021/12/30 10:17:25;;;;;;;73.35;23.90;;;;;;;;;;5119173;28;20015;-73
2021/12/30 10:19:52;;;;;;;78.38;27.23;;;;;;;;;;5118118;28;20147;-74
2021/12/30 10:22:24;;;;;;;58.75;19.55;;;;;;;;;;5118763;28;20206;-73
2021/12/30 10:24:51;;;;;;;75.85;28.48;;;;;;;;;;5118614;28;20015;-73
2021/12/30 10:27:28;;;;;;;71.95;25.50;;;;;;;;;;5118518;28;20020;-73
2021/12/30 10:29:56;;;;;;;66.88;25.17;;;;;;;;;;5118592;28;20018;-73
2021/12/30 10:32:25;;;;;;;67.65;24.23;;;;;;;;;;5118639;28;20084;-73
2021/12/30 10:35:14;;;;;;;52.60;21.48;;;;;;;;;;5117826;28;20042;-73
2021/12/30 10:37:44;;;;;;;50.15;20.63;;;;;;;;;;5118507;28;20039;-72
2021/12/30 10:40:26;;;;;;;57.53;23.17;;;;;;;;;;5118499;28;20031;-73
2021/12/30 10:42:51;;;;;;;57.85;25.00;;;;;;;;;;5117848;28;20092;-74
2021/12/30 10:45:20;;;;;;;54.40;23.70;;;;;;;;;;5134624;28;20027;-74
2021/12/30 10:47:54;;;;;;;55.45;23.45;;;;;;;;;;5117714;28;20020;-73
2021/12/30 10:50:24;;;;;;;51.13;21.40;;;;;;;;;;5118269;28;20031;-73
2021/12/30 10:52:54;;;;;;;48.55;21.33;;;;;;;;;;5117590;28;20016;-73
2021/12/30 10:55:21;;;;;;;54.70;22.45;;;;;;;;;;5118491;28;20084;-73
2021/12/30 10:57:47;;;;;;;48.40;21.42;;;;;;;;;;5119464;28;20004;-73
2021/12/30 11:00:33;;;;;;;44.60;20.20;;;;;;;;;;5122842;28;20008;-73
2021/12/30 11:03:24;;;;;;;50.55;22.95;;;;;;;;;;5122509;28;20296;-72
2021/12/30 11:06:13;;;;;;;43.97;20.45;;;;;;;;;;5122553;28;20064;-73
2021/12/30 11:08:38;;;;;;;47.50;19.83;;;;;;;;;;5122065;28;20035;-73
2021/12/30 11:11:26;;;;;;;44.35;20.70;;;;;;;;;;5122695;28;20008;-73
2021/12/30 11:14:08;;;;;;;49.03;22.98;;;;;;;;;;5122409;28;20027;-73
2021/12/30 11:17:02;;;;;;;46.70;20.75;;;;;;;;;;5122324;28;20012;-71
2021/12/30 11:19:29;;;;;;;45.33;22.53;;;;;;;;;;5122471;28;20008;-73
2021/12/30 11:21:59;;;;;;;45.45;20.05;;;;;;;;;;5122260;28;20072;-73
2021/12/30 11:24:27;;;;;;;43.70;20.02;;;;;;;;;;5122366;28;20016;-73
2021/12/30 11:26:53;;;;;;;41.95;20.02;;;;;;;;;;5122082;28;20084;-74
2021/12/30 11:29:20;;;;;;;46.65;20.75;;;;;;;;;;5122208;28;20031;-73
2021/12/30 11:31:45;;;;;;;31.25;14.90;;;;;;;;;;5121458;28;20034;-73
2021/12/30 11:34:11;;;;;;;44.75;20.63;;;;;;;;;;5121931;28;20019;-73
2021/12/30 11:36:37;;;;;;;38.35;16.92;;;;;;;;;;5120816;28;20054;-72
2021/12/30 11:39:12;;;;;;;48.00;21.10;;;;;;;;;;5121658;28;20012;-73
2021/12/30 11:41:39;;;;;;;49.95;20.80;;;;;;;;;;5121756;28;20018;-72
2021/12/30 11:44:05;;;;;;;42.53;18.33;;;;;;;;;;5121852;28;20012;-73
2021/12/30 11:46:44;;;;;;;46.42;19.67;;;;;;;;;;5121664;28;20022;-74
2021/12/30 11:49:12;;;;;;;44.80;19.23;;;;;;;;;;5121805;28;20012;-72
2021/12/30 11:51:48;;;;;;;41.75;19.55;;;;;;;;;;5121842;28;20012;-72
2021/12/30 11:54:35;;;;;;;45.67;18.17;;;;;;;;;;5121751;28;20020;-73
2021/12/30 11:57:28;;;;;;;42.50;19.10;;;;;;;;;;5121282;28;20049;-72
2021/12/30 12:00:00;;;;;;;42.90;19.38;;;;;;;;;;5119391;28;20016;-73
2021/12/30 12:02:37;;;;;;;39.60;17.02;;;;;;;;;;5121469;28;20034;-73
2021/12/30 12:05:42;;;;;;;40.22;17.77;;;;;;;;;;5121362;28;20019;-73
2021/12/30 12:08:13;;;;;;;51.13;19.90;;;;;;;;;;5104842;28;20027;-74
2021/12/30 12:10:41;;;;;;;45.20;18.55;;;;;;;;;;5121384;28;20024;-74
2021/12/30 12:13:32;;;;;;;41.88;18.20;;;;;;;;;;5121493;28;20020;-73
2021/12/30 12:15:58;;;;;;;45.83;17.88;;;;;;;;;;5121252;28;20020;-74
2021/12/30 12:18:24;;;;;;;49.67;21.80;;;;;;;;;;5121324;28;20020;-73
2021/12/30 12:20:54;;;;;;;51.05;20.15;;;;;;;;;;5121141;28;20034;-73
2021/12/30 12:23:35;;;;;;;31.95;16.73;;;;;;;;;;5120904;28;20020;-73
2021/12/30 12:26:15;;;;;;;49.13;19.77;;;;;;;;;;5120884;28;20008;-75
2021/12/30 12:28:42;;;;;;;42.58;17.45;;;;;;;;;;5120979;28;20016;-75
2021/12/30 12:31:08;;;;;;;42.35;18.23;;;;;;;;;;5120318;28;20005;-74
2021/12/30 12:33:36;;;;;;;34.17;14.57;;;;;;;;;;5120350;28;20012;-74
2021/12/30 12:36:09;;;;;;;45.70;18.05;;;;;;;;;;5120402;28;20028;-74
2021/12/30 12:38:46;;;;;;;56.60;21.00;;;;;;;;;;5119993;28;20024;-74
2021/12/30 12:41:22;;;;;;;45.83;18.52;;;;;;;;;;5120049;28;20069;-74
2021/12/30 12:44:05;;;;;;;32.58;14.32;;;;;;;;;;5120640;28;20027;-74
2021/12/30 12:46:49;;;;;;;57.25;21.08;;;;;;;;;;5120457;28;20028;-74
2021/12/30 12:49:35;;;;;;;30.35;12.43;;;;;;;;;;5120757;28;20004;-73
2021/12/30 12:52:03;;;;;;;41.92;16.33;;;;;;;;;;5120304;28;20016;-74
2021/12/30 12:54:38;;;;;;;36.72;13.23;;;;;;;;;;5119737;28;20317;-73
2021/12/30 12:57:09;;;;;;;25.80;11.55;;;;;;;;;;5120059;28;20024;-74
2021/12/30 12:59:37;;;;;;;48.17;18.10;;;;;;;;;;5120066;28;20012;-73
2021/12/30 13:02:05;;;;;;;56.80;19.40;;;;;;;;;;5120384;28;20012;-74
2021/12/30 13:04:30;;;;;;;52.88;20.75;;;;;;;;;;5120420;28;20079;-74
2021/12/30 13:06:59;;;;;;;42.20;16.65;;;;;;;;;;5119554;28;20023;-74
2021/12/30 13:09:25;;;;;;;38.92;14.75;;;;;;;;;;5119189;28;20012;-74
2021/12/30 13:11:52;;;;;;;30.25;9.95;;;;;;;;;;5120154;28;20197;-74
2021/12/30 13:14:26;;;;;;;43.40;16.92;;;;;;;;;;5120269;28;20030;-75
2021/12/30 13:17:09;;;;;;;22.38;10.00;;;;;;;;;;5119974;28;20084;-75
2021/12/30 13:19:45;;;;;;;21.55;10.55;;;;;;;;;;5119875;28;20033;-74
2021/12/30 13:22:20;;;;;;;27.25;12.60;;;;;;;;;;5119524;28;20039;-74
2021/12/30 13:24:54;;;;;;;26.90;10.90;;;;;;;;;;5119841;28;20022;-74
2021/12/30 13:27:38;;;;;;;29.85;10.52;;;;;;;;;;5119965;28;20016;-75
2021/12/30 13:30:05;;;;;;;25.25;9.35;;;;;;;;;;5119803;28;20012;-74
2021/12/30 13:32:42;;;;;;;29.50;11.32;;;;;;;;;;5119807;28;20032;-74
2021/12/30 13:35:32;;;;;;;29.10;12.50;;;;;;;;;;5119600;28;20019;-75
2021/12/30 13:38:03;;;;;;;27.42;12.57;;;;;;;;;;5119290;28;20043;-75
2021/12/30 13:40:33;;;;;;;18.52;8.90;;;;;;;;;;5119258;28;20264;-74
2021/12/30 13:43:08;;;;;;;16.73;8.18;;;;;;;;;;5118580;28;20034;-75
2021/12/30 13:45:39;;;;;;;31.15;10.75;;;;;;;;;;5117299;28;20022;-75
2021/12/30 13:48:24;;;;;;;29.67;11.32;;;;;;;;;;5119027;28;20140;-75
2021/12/30 13:51:01;;;;;;;20.98;8.65;;;;;;;;;;5119122;28;20060;-75
2021/12/30 13:53:30;;;;;;;22.80;8.80;;;;;;;;;;5118724;28;20012;-75
2021/12/30 13:56:01;;;;;;;33.47;10.48;;;;;;;;;;5118608;28;20008;-74
2021/12/30 13:58:30;;;;;;;31.98;11.50;;;;;;;;;;5118589;28;20030;-74
2021/12/30 14:01:01;;;;;;;31.45;11.05;;;;;;;;;;5118836;28;20028;-75
2021/12/30 14:03:30;;;;;;;22.25;8.82;;;;;;;;;;5118657;28;20026;-74
2021/12/30 14:06:17;;;;;;;19.88;7.53;;;;;;;;;;5118330;28;20008;-74
2021/12/30 14:08:53;;;;;;;24.05;10.27;;;;;;;;;;5118749;28;20034;-75
2021/12/30 14:11:40;;;;;;;16.90;7.53;;;;;;;;;;5118856;28;20026;-74
2021/12/30 14:14:08;;;;;;;19.77;8.98;;;;;;;;;;5118622;28;20076;-74
2021/12/30 14:16:42;;;;;;;20.15;8.00;;;;;;;;;;5118358;28;20012;-74
2021/12/30 14:19:08;;;;;;;23.08;8.73;;;;;;;;;;5118272;28;20028;-75
2021/12/30 14:21:36;;;;;;;21.25;8.93;;;;;;;;;;5118566;28;20043;-73
2021/12/30 14:24:28;;;;;;;21.92;8.80;;;;;;;;;;5118638;28;20027;-75
2021/12/30 14:27:00;;;;;;;19.73;9.00;;;;;;;;;;5117014;28;20048;-75
2021/12/30 14:29:28;;;;;;;15.20;6.93;;;;;;;;;;5117722;28;20026;-73